Marie Alexandra — FGRA — position and weather

sailwx.info

Track history (hours):
 
Tides and Currents Weather Stations Pressure Air Temp Water Temp Dewpoint Dewpoint Depression Visibility Wind Speed Wind Dir Waves Ship Positions

Marie Alexandra

Last reported at 2018-Feb-19 15:35 UTC. Time now 2018-Feb-20 17:36 UTC.
Position N 48°03' W 005°36'.

Length 18 m.

Type: Fishing. MMSI: 227428000.

Date/timePositionNaut miles runAvg speedWind from/ knotsBaromVisibWave heightAir tempDewpointWater temp
2018-Feb-19 15:35N 48°03' W 005°36'5 8.7
2018-Feb-19 14:59N 48°01' W 005°29'4 8.8
2018-Feb-19 14:30N 48°00' W 005°23'4 8.9
2018-Feb-19 14:00N 47°59' W 005°16'4 8.8
2018-Feb-19 13:30N 47°57' W 005°10'5 8.8
2018-Feb-19 12:55N 47°56' W 005°03'4 9.1
2018-Feb-19 12:30N 47°54' W 004°58'5 9.3
2018-Feb-19 12:01N 47°53' W 004°51'5 9.1
2018-Feb-19 11:30N 47°52' W 004°45'5 8.8
2018-Feb-19 10:58N 47°50' W 004°38'4 8.7
2018-Feb-19 10:31N 47°48' W 004°33'4 8.5
2018-Feb-19 10:00N 47°47' W 004°26'4 8.6
2018-Feb-19 09:30N 47°46' W 004°20'3 0.7
2018-Feb-19 05:17N 47°48' W 004°17'0 0.0
2018-Feb-19 04:53N 47°48' W 004°17'0 0.0
2018-Feb-18 18:38N 47°48' W 004°17'0 0.0
2018-Feb-18 16:07N 47°48' W 004°17'0 0.0
2018-Feb-18 15:44N 47°48' W 004°17'0 0.0
2018-Feb-18 15:26N 47°48' W 004°17'0 0.0
2018-Feb-18 07:43N 47°48' W 004°17'0 0.0
2018-Feb-18 07:09N 47°48' W 004°17'0 0.0
2018-Feb-18 06:04N 47°48' W 004°17'0 0.0
2018-Feb-18 05:24N 47°48' W 004°17'0 0.0
2018-Feb-18 04:33N 47°48' W 004°17'0 0.0
2018-Feb-18 03:43N 47°48' W 004°17'0 0.0
2018-Feb-18 03:30N 47°48' W 004°17'0 0.0
2018-Feb-17 18:06N 47°48' W 004°17'0 0.0
2018-Feb-17 17:52N 47°48' W 004°17'0 0.0
2018-Feb-17 17:19N 47°48' W 004°17'0 0.0
2018-Feb-17 16:48N 47°48' W 004°17'0 0.0
2018-Feb-17 16:28N 47°48' W 004°17'0 0.0
2018-Feb-17 15:58N 47°48' W 004°17'0 0.0
2018-Feb-17 15:20N 47°48' W 004°17'0 0.0
2018-Feb-17 05:44N 47°48' W 004°17'0 0.0
2018-Feb-17 05:25N 47°48' W 004°17'0 0.0
2018-Feb-17 04:59N 47°48' W 004°17'0 0.0
2018-Feb-17 04:18N 47°48' W 004°17'0 0.0
2018-Feb-17 03:37N 47°48' W 004°17'0 0.0
2018-Feb-17 03:16N 47°48' W 004°17'0 0.0
2018-Feb-17 03:00N 47°48' W 004°17'0 0.0
2018-Feb-17 02:28N 47°48' W 004°17'0 0.0
2018-Feb-17 01:58N 47°48' W 004°17'0 0.0
2018-Feb-16 19:19N 47°48' W 004°17'0 0.0
2018-Feb-16 18:25N 47°48' W 004°17'0 0.0
2018-Feb-16 16:52N 47°48' W 004°17'0 0.0
2018-Feb-16 15:03N 47°48' W 004°17'1 0.0
2018-Feb-15 13:38N 47°47' W 004°18'1 8.7
2018-Feb-15 13:29N 47°46' W 004°19'4 8.1
2018-Feb-15 12:59N 47°46' W 004°25'4 8.2
2018-Feb-15 12:29N 47°47' W 004°31'4 8.1
2018-Feb-15 11:57N 47°48' W 004°37'4 8.0
2018-Feb-15 11:29N 47°50' W 004°42'4 7.7
2018-Feb-15 10:57N 47°51' W 004°48'4 7.6
2018-Feb-15 10:29N 47°52' W 004°53'5 7.6
2018-Feb-15 09:52N 47°53' W 004°60'3 8.1
2018-Feb-15 09:30N 47°54' W 005°04'4 8.5
2018-Feb-15 08:58N 47°55' W 005°11'4 8.3
2018-Feb-15 08:29N 47°56' W 005°16'4 8.2
2018-Feb-15 08:00N 47°57' W 005°22'5 8.4
2018-Feb-15 07:26N 47°58' W 005°29'  
Track history (hours):
 
Tides and Currents Weather Stations Pressure Air Temp Water Temp Dewpoint Dewpoint Depression Visibility Wind Speed Wind Dir Waves Ship Positions

Marie Alexandra

Last reported at 2018-Feb-19 15:35 UTC. Time now 2018-Feb-20 17:36 UTC.
Position N 48°03' W 005°36'.

Length 18 m.

Type: Fishing. MMSI: 227428000.

Date/timePositionNaut miles runAvg speedWind from/ knotsBaromVisibWave heightAir tempDewpointWater temp
2018-Feb-19 15:35N 48°03' W 005°36'5 8.7
2018-Feb-19 14:59N 48°01' W 005°29'4 8.8
2018-Feb-19 14:30N 48°00' W 005°23'4 8.9
2018-Feb-19 14:00N 47°59' W 005°16'4 8.8
2018-Feb-19 13:30N 47°57' W 005°10'5 8.8
2018-Feb-19 12:55N 47°56' W 005°03'4 9.1
2018-Feb-19 12:30N 47°54' W 004°58'5 9.3
2018-Feb-19 12:01N 47°53' W 004°51'5 9.1
2018-Feb-19 11:30N 47°52' W 004°45'5 8.8
2018-Feb-19 10:58N 47°50' W 004°38'4 8.7
2018-Feb-19 10:31N 47°48' W 004°33'4 8.5
2018-Feb-19 10:00N 47°47' W 004°26'4 8.6
2018-Feb-19 09:30N 47°46' W 004°20'3 0.7
2018-Feb-19 05:17N 47°48' W 004°17'0 0.0
2018-Feb-19 04:53N 47°48' W 004°17'0 0.0
2018-Feb-18 18:38N 47°48' W 004°17'0 0.0
2018-Feb-18 16:07N 47°48' W 004°17'0 0.0
2018-Feb-18 15:44N 47°48' W 004°17'0 0.0
2018-Feb-18 15:26N 47°48' W 004°17'0 0.0
2018-Feb-18 07:43N 47°48' W 004°17'0 0.0
2018-Feb-18 07:09N 47°48' W 004°17'0 0.0
2018-Feb-18 06:04N 47°48' W 004°17'0 0.0
2018-Feb-18 05:24N 47°48' W 004°17'0 0.0
2018-Feb-18 04:33N 47°48' W 004°17'0 0.0
2018-Feb-18 03:43N 47°48' W 004°17'0 0.0
2018-Feb-18 03:30N 47°48' W 004°17'0 0.0
2018-Feb-17 18:06N 47°48' W 004°17'0 0.0
2018-Feb-17 17:52N 47°48' W 004°17'0 0.0
2018-Feb-17 17:19N 47°48' W 004°17'0 0.0
2018-Feb-17 16:48N 47°48' W 004°17'0 0.0
2018-Feb-17 16:28N 47°48' W 004°17'0 0.0
2018-Feb-17 15:58N 47°48' W 004°17'0 0.0
2018-Feb-17 15:20N 47°48' W 004°17'0 0.0
2018-Feb-17 05:44N 47°48' W 004°17'0 0.0
2018-Feb-17 05:25N 47°48' W 004°17'0 0.0
2018-Feb-17 04:59N 47°48' W 004°17'0 0.0
2018-Feb-17 04:18N 47°48' W 004°17'0 0.0
2018-Feb-17 03:37N 47°48' W 004°17'0 0.0
2018-Feb-17 03:16N 47°48' W 004°17'0 0.0
2018-Feb-17 03:00N 47°48' W 004°17'0 0.0
2018-Feb-17 02:28N 47°48' W 004°17'0 0.0
2018-Feb-17 01:58N 47°48' W 004°17'0 0.0
2018-Feb-16 19:19N 47°48' W 004°17'0 0.0
2018-Feb-16 18:25N 47°48' W 004°17'0 0.0
2018-Feb-16 16:52N 47°48' W 004°17'0 0.0
2018-Feb-16 15:03N 47°48' W 004°17'1 0.0
2018-Feb-15 13:38N 47°47' W 004°18'1 8.7
2018-Feb-15 13:29N 47°46' W 004°19'4 8.1
2018-Feb-15 12:59N 47°46' W 004°25'4 8.2
2018-Feb-15 12:29N 47°47' W 004°31'4 8.1
2018-Feb-15 11:57N 47°48' W 004°37'4 8.0
2018-Feb-15 11:29N 47°50' W 004°42'4 7.7
2018-Feb-15 10:57N 47°51' W 004°48'4 7.6
2018-Feb-15 10:29N 47°52' W 004°53'5 7.6
2018-Feb-15 09:52N 47°53' W 004°60'3 8.1
2018-Feb-15 09:30N 47°54' W 005°04'4 8.5
2018-Feb-15 08:58N 47°55' W 005°11'4 8.3
2018-Feb-15 08:29N 47°56' W 005°16'4 8.2
2018-Feb-15 08:00N 47°57' W 005°22'5 8.4
2018-Feb-15 07:26N 47°58' W 005°29'  

Dump ship's entire track history